Time;durP1;ratioP1;P1;durP2;ratioP2;P2;SDS_P1;SDS_P2;PMS_P1;PMS_P2;Temp;Humidity;BMP_temperature;BMP_pressure;BME280_temperature;BME280_humidity;BME280_pressure;Samples;Min_cycle;Max_cycle;Signal;HPM_P1;HPM_P2
2021/04/19 00:01:08;;;;;;;35.03;21.05;;;;;;;3.20;88.86;96809.31;1786862;79;21095;-84
2021/04/19 00:03:35;;;;;;;29.65;19.07;;;;;;;3.18;89.01;96809.54;1775530;80;21122;-84
2021/04/19 00:06:02;;;;;;;26.68;17.25;;;;;;;3.20;89.29;96810.11;1784515;79;21154;-84
2021/04/19 00:08:29;;;;;;;31.37;18.70;;;;;;;3.25;89.50;96810.77;1770742;80;21495;-84
2021/04/19 00:10:57;;;;;;;30.88;19.12;;;;;;;3.32;89.58;96802.27;1797645;79;21143;-84
2021/04/19 00:13:25;;;;;;;29.90;19.55;;;;;;;3.37;89.66;96798.44;1772533;80;21159;-84
2021/04/19 00:15:52;;;;;;;30.35;19.80;;;;;;;3.43;89.68;96791.52;1768629;80;21138;-84
2021/04/19 00:18:19;;;;;;;26.62;19.85;;;;;;;3.49;89.67;96788.77;1764681;80;21484;-84
2021/04/19 00:20:46;;;;;;;26.07;16.27;;;;;;;3.55;89.60;96795.73;1759172;80;21107;-84
2021/04/19 00:23:13;;;;;;;26.40;15.83;;;;;;;3.62;89.55;96790.87;1767902;79;21111;-84
2021/04/19 00:25:40;;;;;;;24.63;16.07;;;;;;;3.64;89.41;96792.23;1766492;79;21126;-84
2021/04/19 00:28:07;;;;;;;22.35;15.40;;;;;;;3.62;89.27;96785.11;1770596;80;21123;-84
2021/04/19 00:30:35;;;;;;;25.00;15.80;;;;;;;3.58;89.25;96791.33;1776901;80;21151;-84
2021/04/19 00:33:02;;;;;;;19.30;13.65;;;;;;;3.55;89.24;96783.94;1766149;79;21116;-84
2021/04/19 00:35:29;;;;;;;23.65;13.62;;;;;;;3.54;89.16;96779.72;1760798;80;21480;-84
2021/04/19 00:37:55;;;;;;;21.10;14.07;;;;;;;3.54;89.04;96783.65;1780252;80;21479;-84
2021/04/19 00:40:23;;;;;;;20.32;13.40;;;;;;;3.46;89.00;96780.05;1763375;80;21194;-84
2021/04/19 00:42:54;;;;;;;25.95;16.40;;;;;;;3.41;89.19;96777.33;1762304;80;21144;-84
2021/04/19 00:45:22;;;;;;;30.55;18.35;;;;;;;3.41;89.46;96773.40;1768091;80;21171;-84
2021/04/19 00:47:49;;;;;;;32.20;20.85;;;;;;;3.49;89.66;96778.28;1771041;80;21488;-84
2021/04/19 00:50:25;;;;;;;27.82;17.75;;;;;;;3.58;89.75;96779.54;1759462;80;21203;-84
2021/04/19 00:52:53;;;;;;;25.97;17.15;;;;;;;3.65;89.68;96778.61;1778945;80;21180;-84
2021/04/19 00:55:21;;;;;;;33.48;21.25;;;;;;;3.68;89.53;96778.97;1763797;80;21152;-84
2021/04/19 00:57:48;;;;;;;29.85;18.75;;;;;;;3.64;89.52;96775.70;1756886;80;21155;-84
2021/04/19 01:00:34;;;;;;;36.23;21.57;;;;;;;3.58;89.52;96776.91;1784122;79;21101;-84
2021/04/19 01:03:03;;;;;;;33.85;21.27;;;;;;;3.57;89.58;96775.33;1773161;79;21087;-84
2021/04/19 01:08:15;;;;;;;31.48;21.93;;;;;;;3.68;89.75;96772.92;1816572;79;23098;-83
2021/04/19 01:10:44;;;;;;;31.95;20.72;;;;;;;3.66;89.73;96776.27;1753737;80;21258;-83
2021/04/19 01:13:11;;;;;;;28.20;18.48;;;;;;;3.68;89.81;96770.30;1752024;81;21192;-83
2021/04/19 01:15:38;;;;;;;26.90;17.15;;;;;;;3.69;89.72;96766.66;1754488;81;21535;-83
2021/04/19 01:18:07;;;;;;;21.85;15.08;;;;;;;3.69;89.58;96765.34;1760482;81;21123;-83
2021/04/19 01:20:40;;;;;;;22.95;14.98;;;;;;;3.66;89.46;96771.02;1757216;81;21139;-83
2021/04/19 01:23:10;;;;;;;30.30;19.50;;;;;;;3.65;89.40;96761.56;1754651;81;21119;-84
2021/04/19 01:25:38;;;;;;;34.80;21.90;;;;;;;3.64;89.40;96765.22;1761297;81;21254;-84
2021/04/19 01:28:06;;;;;;;30.88;21.57;;;;;;;3.67;89.46;96772.65;1755729;81;21129;-84
2021/04/19 01:30:38;;;;;;;29.70;19.05;;;;;;;3.71;89.52;96768.53;1757646;81;21629;-84
2021/04/19 01:33:06;;;;;;;34.55;22.58;;;;;;;3.76;89.48;96764.69;1762079;81;21131;-84
2021/04/19 01:35:35;;;;;;;35.85;24.30;;;;;;;3.71;89.47;96761.46;1760696;81;21571;-84
2021/04/19 01:38:05;;;;;;;37.17;23.45;;;;;;;3.70;89.46;96761.17;1758357;81;21163;-84
2021/04/19 01:40:33;;;;;;;36.15;22.13;;;;;;;3.70;89.46;96759.07;1759849;81;21112;-84
2021/04/19 01:43:01;;;;;;;32.48;20.00;;;;;;;3.74;89.54;96755.75;1745570;81;21323;-84
2021/04/19 01:45:28;;;;;;;25.95;16.93;;;;;;;3.80;89.51;96759.26;1766615;81;21186;-84
2021/04/19 01:47:56;;;;;;;25.88;16.67;;;;;;;3.77;89.43;96757.11;1758543;80;21159;-84
2021/04/19 01:50:30;;;;;;;25.72;16.37;;;;;;;3.74;89.35;96756.27;1764202;80;21167;-84
2021/04/19 01:53:00;;;;;;;26.12;15.88;;;;;;;3.78;89.33;96758.70;1760092;81;21127;-84
2021/04/19 01:55:31;;;;;;;34.35;21.73;;;;;;;3.77;89.29;96755.28;1767128;81;21123;-84
2021/04/19 01:58:05;;;;;;;32.95;21.12;;;;;;;3.71;89.25;96751.48;1746695;81;21448;-84
2021/04/19 02:00:35;;;;;;;36.08;23.67;;;;;;;3.66;89.57;96753.98;1754602;81;21284;-84
2021/04/19 02:03:33;;;;;;;38.73;23.02;;;;;;;3.65;89.66;96750.56;1760195;81;21285;-84
2021/04/19 02:06:39;;;;;;;33.90;23.20;;;;;;;3.71;89.67;96756.73;1756496;81;21548;-84
2021/04/19 02:09:23;;;;;;;37.98;24.30;;;;;;;3.73;89.67;96757.30;1749280;80;21505;-83
2021/04/19 02:12:04;;;;;;;36.40;23.62;;;;;;;3.75;89.66;96760.48;1752673;81;21115;-84
2021/04/19 02:17:43;;;;;;;29.32;19.48;;;;;;;3.79;89.65;96762.91;1774185;79;23050;-83
2021/04/19 02:20:22;;;;;;;28.15;18.27;;;;;;;3.77;89.67;96767.59;1716313;80;21169;-84
2021/04/19 02:22:57;;;;;;;25.27;17.32;;;;;;;3.79;89.72;96762.91;1710613;82;21088;-84
2021/04/19 02:25:38;;;;;;;34.10;21.27;;;;;;;3.79;89.72;96757.66;1723364;83;21092;-84
2021/04/19 02:28:16;;;;;;;;;;;;;;;3.78;89.81;96754.77;1724512;83;21127;-84
2021/04/19 02:30:47;;;;;;;35.63;23.85;;;;;;;3.76;89.86;96751.58;1717268;82;20356;-84
2021/04/19 02:33:18;;;;;;;25.00;16.87;;;;;;;3.78;89.97;96748.20;1709979;81;21114;-84
2021/04/19 02:35:48;;;;;;;20.00;13.28;;;;;;;3.80;90.02;96750.08;1721551;83;21152;-84
2021/04/19 02:38:20;;;;;;;24.90;15.32;;;;;;;3.77;90.00;96748.72;1728497;81;21179;-84
2021/04/19 02:40:50;;;;;;;23.77;16.07;;;;;;;3.74;89.97;96752.33;1720603;82;21123;-84
2021/04/19 02:43:21;;;;;;;30.37;18.70;;;;;;;3.72;90.00;96750.45;1721066;83;21111;-84
2021/04/19 02:45:48;;;;;;;35.55;21.90;;;;;;;3.73;90.09;96753.36;1729241;82;21169;-84
2021/04/19 02:48:16;;;;;;;39.27;24.95;;;;;;;3.76;90.13;96752.89;1720157;81;21099;-84
2021/04/19 02:50:44;;;;;;;34.67;22.70;;;;;;;3.75;90.16;96756.55;1723335;83;21162;-84
2021/04/19 02:53:13;;;;;;;34.48;22.25;;;;;;;3.78;90.24;96752.94;1717491;81;21155;-84
2021/04/19 02:55:41;;;;;;;34.25;22.65;;;;;;;3.76;90.26;96746.34;1714894;83;21132;-83
2021/04/19 02:58:10;;;;;;;30.68;19.87;;;;;;;3.76;90.33;96747.65;1730044;81;21165;-84
2021/04/19 03:00:44;;;;;;;28.42;18.62;;;;;;;3.79;90.38;96741.42;1708050;81;21151;-84
2021/04/19 03:03:23;;;;;;;29.82;18.25;;;;;;;3.82;90.38;96738.87;1720534;82;21581;-84
2021/04/19 03:05:52;;;;;;;25.77;18.10;;;;;;;3.82;90.30;96737.56;1711089;81;21100;-84
2021/04/19 03:08:22;;;;;;;23.02;15.88;;;;;;;3.83;90.34;96739.95;1747409;82;21217;-84
2021/04/19 03:10:54;;;;;;;31.07;20.60;;;;;;;3.84;90.35;96744.16;1706946;81;21091;-84
2021/04/19 03:13:25;;;;;;;25.40;17.07;;;;;;;3.83;90.35;96737.33;1700672;83;21530;-84
2021/04/19 03:15:54;;;;;;;;;;;;;;;3.84;90.36;96734.19;1727441;83;21123;-84
2021/04/19 03:18:23;;;;;;;23.32;14.58;;;;;;;3.73;90.29;96737.11;1722754;83;20146;-83
2021/04/19 03:21:14;;;;;;;23.32;15.25;;;;;;;3.62;90.29;96739.75;1684906;83;21175;-84
2021/04/19 03:23:49;;;;;;;29.72;18.00;;;;;;;3.53;90.41;96733.57;1716863;83;21166;-83
2021/04/19 03:26:18;;;;;;;31.27;19.15;;;;;;;3.47;90.64;96728.44;1709328;83;21178;-84
2021/04/19 03:28:48;;;;;;;30.10;19.95;;;;;;;3.48;90.89;96727.41;1719137;83;21167;-84
2021/04/19 03:31:39;;;;;;;28.12;20.25;;;;;;;3.47;91.07;96725.30;1687618;83;21150;-84
2021/04/19 03:34:13;;;;;;;36.03;22.30;;;;;;;3.50;91.12;96723.52;1713190;83;21201;-83
2021/04/19 03:36:43;;;;;;;29.32;20.70;;;;;;;3.54;91.23;96728.61;1726438;83;21176;-83
2021/04/19 03:39:12;;;;;;;31.95;21.77;;;;;;;3.59;91.24;96726.59;1695742;83;21146;-83
2021/04/19 03:41:48;;;;;;;29.73;20.13;;;;;;;3.63;91.22;96727.72;1728582;82;21208;-83
2021/04/19 03:44:21;;;;;;;30.32;20.62;;;;;;;3.68;91.25;96729.16;1696654;83;21474;-83
2021/04/19 03:46:51;;;;;;;25.82;17.23;;;;;;;3.71;91.18;96726.58;1719320;81;21083;-83
2021/04/19 03:49:30;;;;;;;19.00;13.30;;;;;;;3.70;91.11;96723.16;1720958;82;21552;-83
2021/04/19 03:52:02;;;;;;;26.40;16.73;;;;;;;3.66;90.99;96722.52;1726457;82;21474;-84
2021/04/19 03:54:34;;;;;;;28.42;17.82;;;;;;;3.56;91.08;96721.30;1712536;83;21149;-84
2021/04/19 03:57:04;;;;;;;31.45;18.80;;;;;;;3.54;91.29;96718.13;1708484;83;21160;-84
2021/04/19 03:59:31;;;;;;;;;;;;;;;3.54;91.52;96719.44;1704585;83;21147;-84
2021/04/19 04:02:05;;;;;;;28.02;16.62;;;;;;;3.58;91.67;96717.14;1705110;83;20166;-84
2021/04/19 04:04:34;;;;;;;28.77;17.70;;;;;;;3.61;91.82;96709.32;1721234;81;21460;-83
2021/04/19 04:07:03;;;;;;;31.42;18.85;;;;;;;3.66;91.86;96709.41;1725548;82;21212;-83
2021/04/19 04:09:30;;;;;;;25.75;17.25;;;;;;;3.69;91.85;96709.77;1704924;83;21169;-83
2021/04/19 04:11:57;;;;;;;27.95;17.98;;;;;;;3.71;91.84;96707.72;1702112;83;21115;-83
2021/04/19 04:14:24;;;;;;;30.72;19.30;;;;;;;3.66;92.06;96699.75;1713222;83;21152;-83
2021/04/19 04:16:51;;;;;;;30.17;20.05;;;;;;;3.66;92.03;96708.11;1721798;83;21071;-83
2021/04/19 04:19:18;;;;;;;28.50;19.40;;;;;;;3.71;92.10;96708.23;1713352;83;21165;-83
2021/04/19 04:21:46;;;;;;;36.70;23.02;;;;;;;3.77;92.08;96704.66;1707027;83;21159;-83
2021/04/19 04:24:14;;;;;;;34.58;22.13;;;;;;;3.83;92.06;96703.75;1718083;82;21491;-83
2021/04/19 04:26:41;;;;;;;33.10;20.72;;;;;;;3.90;92.06;96699.16;1714190;82;21645;-83
2021/04/19 04:29:08;;;;;;;32.95;21.35;;;;;;;3.95;92.01;96700.58;1717144;83;21158;-83
2021/04/19 04:31:35;;;;;;;36.77;22.93;;;;;;;4.01;91.93;96704.09;1682248;83;21096;-83
2021/04/19 04:34:02;;;;;;;33.85;23.87;;;;;;;4.02;91.86;96703.84;1730293;82;21208;-83
2021/04/19 04:36:29;;;;;;;38.65;24.40;;;;;;;4.07;91.86;96712.31;1706291;83;21654;-83
2021/04/19 04:38:56;;;;;;;35.63;23.70;;;;;;;4.10;91.89;96704.80;1723462;83;21514;-83
2021/04/19 04:41:23;;;;;;;38.13;24.25;;;;;;;4.14;91.87;96703.29;1719940;81;21147;-83
2021/04/19 04:43:54;;;;;;;36.10;23.92;;;;;;;4.19;91.79;96699.95;1718294;82;21106;-83
2021/04/19 04:46:50;;;;;;;39.05;23.80;;;;;;;4.21;91.71;96701.83;1738775;82;21498;-83
2021/04/19 04:49:34;;;;;;;38.60;25.12;;;;;;;4.22;91.59;96703.94;1706503;81;21221;-84
2021/04/19 04:52:03;;;;;;;37.13;24.27;;;;;;;4.20;91.52;96706.80;1726542;81;21253;-84
2021/04/19 04:54:31;;;;;;;37.75;23.47;;;;;;;4.19;91.46;96709.14;1716408;81;21241;-83
2021/04/19 04:57:02;;;;;;;38.20;24.77;;;;;;;4.19;91.43;96703.89;1712670;81;21169;-84
2021/04/19 04:59:31;;;;;;;42.05;26.10;;;;;;;4.23;91.38;96712.91;1715933;83;21137;-84
2021/04/19 05:01:59;;;;;;;36.42;24.40;;;;;;;4.24;91.36;96707.14;1737101;82;21461;-84
2021/04/19 05:04:28;;;;;;;39.53;25.55;;;;;;;4.25;91.31;96710.84;1733060;82;21119;-84
2021/04/19 05:06:56;;;;;;;43.68;26.45;;;;;;;4.24;91.34;96710.56;1711673;83;21147;-84
2021/04/19 05:09:25;;;;;;;39.25;26.00;;;;;;;4.26;91.33;96708.50;1733387;81;21154;-84
2021/04/19 05:11:52;;;;;;;41.80;27.17;;;;;;;4.30;91.33;96703.05;1724670;81;21517;-84
2021/04/19 05:14:26;;;;;;;36.65;24.12;;;;;;;4.33;91.26;96705.71;1714711;83;21112;-84
2021/04/19 05:16:53;;;;;;;39.38;25.08;;;;;;;4.37;91.23;96705.54;1724198;82;21489;-84
2021/04/19 05:19:21;;;;;;;39.65;26.60;;;;;;;4.40;91.15;96711.62;1713502;83;21182;-84
2021/04/19 05:21:48;;;;;;;43.87;26.97;;;;;;;4.37;91.02;96710.27;1741819;82;21155;-84
2021/04/19 05:24:15;;;;;;;39.95;27.13;;;;;;;4.35;90.94;96712.83;1723616;82;21123;-84
2021/04/19 05:26:42;;;;;;;40.83;27.90;;;;;;;4.37;91.00;96715.52;1716725;81;21268;-84
2021/04/19 05:29:10;;;;;;;44.35;28.50;;;;;;;4.36;91.06;96707.38;1730119;82;21115;-84
2021/04/19 05:31:37;;;;;;;37.67;25.32;;;;;;;4.38;91.10;96711.86;1733958;82;21183;-84
2021/04/19 05:34:04;;;;;;;42.50;27.90;;;;;;;4.40;91.09;96707.69;1732130;81;21170;-84
2021/04/19 05:36:32;;;;;;;41.48;25.62;;;;;;;4.38;91.04;96713.17;1714027;82;21248;-84
2021/04/19 05:39:00;;;;;;;39.03;27.13;;;;;;;4.40;91.16;96711.62;1723368;81;21167;-84
2021/04/19 05:41:27;;;;;;;39.90;26.87;;;;;;;4.43;91.14;96712.45;1713774;83;21155;-84
2021/04/19 05:43:54;;;;;;;42.93;27.85;;;;;;;4.51;91.21;96716.55;1730507;81;21252;-83
2021/04/19 05:46:21;;;;;;;40.88;28.10;;;;;;;4.56;91.18;96710.85;1701965;82;21135;-84
2021/04/19 05:48:48;;;;;;;39.90;24.63;;;;;;;4.62;91.14;96706.47;1726250;81;21708;-84
2021/04/19 05:51:23;;;;;;;39.88;25.72;;;;;;;4.68;91.16;96708.16;1714579;81;21257;-84
2021/04/19 05:53:56;;;;;;;38.95;24.50;;;;;;;4.71;91.11;96709.78;1715811;81;21498;-84
2021/04/19 05:56:50;;;;;;;36.63;24.18;;;;;;;4.76;91.11;96707.23;1725356;82;21136;-84
2021/04/19 05:59:48;;;;;;;35.50;24.60;;;;;;;4.79;91.06;96708.61;1715085;83;21124;-84
2021/04/19 06:02:29;;;;;;;38.00;23.67;;;;;;;4.88;91.24;96713.72;1705879;81;21160;-84
2021/04/19 06:05:06;;;;;;;36.75;23.40;;;;;;;4.99;91.25;96707.59;1716679;82;21148;-83
2021/04/19 06:07:42;;;;;;;36.80;24.27;;;;;;;5.04;91.16;96706.34;1726612;82;21506;-83
2021/04/19 06:13:04;;;;;;;35.35;23.95;;;;;;;5.23;91.11;96700.34;1859560;76;22154;-84
2021/04/19 06:15:32;;;;;;;38.10;24.77;;;;;;;5.22;91.06;96705.31;1835686;77;21451;-83
2021/04/19 06:18:01;;;;;;;33.98;22.37;;;;;;;5.26;90.98;96710.88;1824022;77;21126;-83
2021/04/19 06:20:29;;;;;;;31.75;23.18;;;;;;;5.23;90.93;96709.53;1839720;77;21240;-84
2021/04/19 06:22:57;;;;;;;37.30;24.98;;;;;;;5.22;90.95;96713.20;1842456;76;21120;-84
2021/04/19 06:25:25;;;;;;;33.60;23.65;;;;;;;5.23;90.93;96715.31;1834636;77;21275;-83
2021/04/19 06:28:05;;;;;;;35.30;23.65;;;;;;;5.24;90.90;96715.06;1847920;77;21235;-83
2021/04/19 06:30:41;;;;;;;37.65;24.55;;;;;;;5.28;91.05;96714.05;1844265;77;21613;-84
2021/04/19 06:33:15;;;;;;;38.58;24.90;;;;;;;5.32;91.23;96712.01;1841871;77;21151;-84
2021/04/19 06:35:43;;;;;;;39.35;24.63;;;;;;;5.39;91.30;96715.00;1848612;76;21154;-84
2021/04/19 06:38:12;;;;;;;33.02;22.10;;;;;;;5.41;91.31;96714.23;1856099;76;21524;-84
2021/04/19 06:40:43;;;;;;;36.40;23.67;;;;;;;5.45;91.34;96719.28;1837136;77;21110;-84
2021/04/19 06:43:11;;;;;;;36.05;23.30;;;;;;;5.45;91.33;96716.65;1835710;77;21186;-84
2021/04/19 06:45:40;;;;;;;32.48;21.42;;;;;;;5.46;91.35;96713.77;1838021;77;21115;-84
2021/04/19 06:48:11;;;;;;;32.38;20.62;;;;;;;5.51;91.37;96716.49;1832017;77;21166;-84
2021/04/19 06:50:40;;;;;;;39.03;25.50;;;;;;;5.51;91.51;96698.61;1843809;77;21268;-84
2021/04/19 06:53:08;;;;;;;40.30;24.70;;;;;;;5.50;91.46;96706.22;1843831;76;21460;-84
2021/04/19 06:55:38;;;;;;;40.50;25.05;;;;;;;5.52;91.50;96697.05;1852277;76;21124;-84
2021/04/19 06:58:06;;;;;;;41.90;25.62;;;;;;;5.51;91.53;96694.66;1841345;77;21234;-84
2021/04/19 07:00:34;;;;;;;41.53;24.67;;;;;;;5.50;91.52;96695.70;1848323;77;21165;-84
2021/04/19 07:03:05;;;;;;;37.05;22.82;;;;;;;5.51;91.48;96701.23;1833387;77;21547;-84
2021/04/19 07:05:35;;;;;;;35.90;22.37;;;;;;;5.52;91.43;96704.93;1837670;77;21115;-84
2021/04/19 07:08:27;;;;;;;37.70;22.87;;;;;;;5.51;91.31;96700.72;1831416;76;21164;-84
2021/04/19 07:11:06;;;;;;;39.53;26.17;;;;;;;5.51;91.30;96699.40;1851998;76;21224;-84
2021/04/19 07:13:39;;;;;;;37.60;24.70;;;;;;;5.53;91.33;96695.20;1852873;77;21131;-84
2021/04/19 07:16:08;;;;;;;36.42;23.42;;;;;;;5.57;91.45;96693.67;1846319;76;21105;-84
2021/04/19 07:18:35;;;;;;;38.15;23.73;;;;;;;5.60;91.62;96691.86;1848635;77;21104;-85
2021/04/19 07:21:03;;;;;;;42.85;26.45;;;;;;;5.56;91.66;96694.20;1850416;77;21534;-85
2021/04/19 07:23:30;;;;;;;38.20;25.20;;;;;;;5.52;91.62;96704.14;1851275;77;21119;-85
2021/04/19 07:25:58;;;;;;;39.45;25.90;;;;;;;5.53;91.65;96701.78;1849931;77;21152;-84
2021/04/19 07:28:26;;;;;;;40.15;27.37;;;;;;;5.57;91.74;96702.88;1845714;77;21213;-85
2021/04/19 07:31:00;;;;;;;42.13;29.87;;;;;;;5.59;91.62;96700.27;1800891;78;21128;-84
2021/04/19 07:33:31;;;;;;;42.65;28.10;;;;;;;5.56;91.30;96698.14;1768961;79;21250;-84
2021/04/19 07:36:22;;;;;;;43.10;28.62;;;;;;;5.52;90.99;96700.20;1756476;80;21108;-84
2021/04/19 07:38:51;;;;;;;41.20;28.65;;;;;;;5.46;90.82;96701.94;1768282;80;21175;-84
2021/04/19 07:41:19;;;;;;;42.83;28.38;;;;;;;5.38;90.65;96705.52;1757105;80;21647;-85
2021/04/19 07:43:48;;;;;;;43.40;27.42;;;;;;;5.35;90.61;96704.98;1768466;80;21088;-84
2021/04/19 07:46:18;;;;;;;38.70;27.20;;;;;;;5.34;90.70;96706.50;1767031;79;21138;-85
2021/04/19 07:48:50;;;;;;;;;;;;;;;5.32;90.64;96709.37;1818512;78;21122;-84
2021/04/19 07:51:29;;;;;;;38.25;24.80;;;;;;;5.32;90.60;96710.69;1770025;80;20112;-85
2021/04/19 07:54:24;;;;;;;32.28;23.22;;;;;;;5.32;90.63;96712.01;1762636;80;21120;-85
2021/04/19 07:56:56;;;;;;;37.65;26.37;;;;;;;5.36;90.74;96708.40;1773567;80;21302;-84
2021/04/19 07:59:31;;;;;;;41.83;27.82;;;;;;;5.41;90.85;96708.46;1763164;80;21153;-84
2021/04/19 08:02:09;;;;;;;41.95;26.20;;;;;;;5.43;90.82;96711.64;1794726;80;21150;-85
2021/04/19 08:04:49;;;;;;;40.78;25.70;;;;;;;5.47;90.87;96708.79;1801575;79;21076;-84
2021/04/19 08:07:27;;;;;;;36.15;23.55;;;;;;;5.51;90.93;96707.80;1794969;79;21120;-85
2021/04/19 08:10:08;;;;;;;37.05;25.88;;;;;;;5.54;91.02;96706.00;1791478;79;21134;-84
2021/04/19 08:12:42;;;;;;;42.83;26.20;;;;;;;5.52;91.03;96709.39;1768357;80;21131;-84
2021/04/19 08:15:14;;;;;;;38.33;24.82;;;;;;;5.53;91.18;96713.62;1801644;80;21535;-84
2021/04/19 08:17:41;;;;;;;37.73;25.85;;;;;;;5.54;91.21;96709.94;1801430;79;21088;-84
2021/04/19 08:20:15;;;;;;;37.45;25.27;;;;;;;5.56;91.24;96711.80;1798781;79;21470;-84
2021/04/19 08:22:44;;;;;;;41.10;27.67;;;;;;;5.54;91.20;96708.11;1803238;78;21115;-84
2021/04/19 08:25:21;;;;;;;39.45;26.60;;;;;;;5.60;91.38;96707.13;1786083;79;21131;-84
2021/04/19 08:28:08;;;;;;;35.80;23.07;;;;;;;5.64;91.37;96708.77;1774055;80;21148;-84
2021/04/19 08:30:38;;;;;;;38.58;25.68;;;;;;;5.70;91.49;96699.89;1768820;80;21126;-84
2021/04/19 08:33:07;;;;;;;36.40;25.37;;;;;;;5.77;91.53;96703.64;1794993;80;21147;-84
2021/04/19 08:35:35;;;;;;;39.42;27.15;;;;;;;5.79;91.56;96702.38;1778900;79;21167;-84
2021/04/19 08:38:05;;;;;;;39.05;26.97;;;;;;;5.73;91.68;96703.34;1766710;80;21534;-84
2021/04/19 08:40:37;;;;;;;42.17;26.23;;;;;;;5.72;91.73;96700.44;1800147;78;21076;-84
2021/04/19 08:43:09;;;;;;;39.60;25.60;;;;;;;5.77;91.86;96697.88;1808608;78;21533;-84
2021/04/19 08:45:42;;;;;;;34.98;23.75;;;;;;;5.87;92.03;96695.88;1754324;80;21132;-84
2021/04/19 08:48:12;;;;;;;34.53;24.40;;;;;;;5.87;92.06;96702.45;1779682;79;21122;-84
2021/04/19 08:50:43;;;;;;;37.95;25.50;;;;;;;5.88;92.11;96695.63;1782333;80;21107;-84
2021/04/19 08:53:13;;;;;;;34.90;23.30;;;;;;;5.92;92.19;96701.24;1779371;79;21593;-84
2021/04/19 08:55:44;;;;;;;30.30;20.62;;;;;;;5.94;92.28;96702.59;1767082;80;21111;-84
2021/04/19 08:58:15;;;;;;;28.40;19.82;;;;;;;6.01;92.59;96693.69;1783427;78;21230;-84
2021/04/19 09:00:51;;;;;;;35.20;21.90;;;;;;;6.02;92.62;96699.23;1793854;78;21134;-84
2021/04/19 09:03:21;;;;;;;40.67;24.07;;;;;;;6.02;92.73;96699.23;1772715;80;21111;-84
2021/04/19 09:05:50;;;;;;;33.75;21.40;;;;;;;6.04;92.75;96701.88;1776590;80;21084;-84
2021/04/19 09:08:19;;;;;;;30.25;20.50;;;;;;;6.07;92.80;96701.41;1797481;79;21134;-84
2021/04/19 09:11:00;;;;;;;28.70;19.62;;;;;;;6.12;92.87;96704.61;1793760;79;21141;-84
2021/04/19 09:13:39;;;;;;;25.30;16.55;;;;;;;6.11;93.10;96697.23;1772738;79;21107;-84
2021/04/19 09:16:24;;;;;;;25.05;17.25;;;;;;;6.15;93.14;96696.21;1789960;79;21100;-84
2021/04/19 09:18:58;;;;;;;25.05;16.45;;;;;;;6.22;93.42;96693.67;1779002;79;21166;-84
2021/04/19 09:21:49;;;;;;;27.80;17.90;;;;;;;6.35;93.49;96689.06;1787582;79;21495;-84
2021/04/19 09:24:21;;;;;;;22.27;14.05;;;;;;;6.43;93.22;96690.70;1771322;79;21111;-84
2021/04/19 09:26:56;;;;;;;19.25;12.23;;;;;;;6.58;93.46;96692.67;1784422;79;21099;-84
2021/04/19 09:29:32;;;;;;;13.62;8.95;;;;;;;6.71;93.27;96693.58;1785932;79;21180;-84
2021/04/19 09:32:11;;;;;;;13.48;9.33;;;;;;;6.80;93.09;96693.41;1795431;79;21228;-84
2021/04/19 09:34:49;;;;;;;13.43;9.60;;;;;;;6.84;92.64;96693.16;1792430;79;21609;-84
2021/04/19 09:37:21;;;;;;;11.03;7.50;;;;;;;6.84;92.37;96687.89;1782575;79;21099;-84
2021/04/19 09:40:01;;;;;;;12.10;8.33;;;;;;;6.90;92.31;96686.11;1780536;79;21145;-84
2021/04/19 09:43:03;;;;;;;11.90;7.50;;;;;;;6.90;92.01;96683.47;1770219;80;21092;-84
2021/04/19 09:45:52;;;;;;;10.20;6.80;;;;;;;6.89;91.63;96684.49;1771100;80;21143;-84
2021/04/19 09:48:31;;;;;;;12.45;7.58;;;;;;;6.85;91.44;96685.53;1800445;79;21099;-84
2021/04/19 09:51:26;;;;;;;10.13;6.58;;;;;;;6.90;91.45;96685.28;1767961;79;21240;-84
2021/04/19 09:53:59;;;;;;;11.33;6.78;;;;;;;6.93;91.39;96679.53;1774789;79;21551;-84
2021/04/19 09:56:43;;;;;;;15.32;8.43;;;;;;;6.97;91.21;96684.03;1784553;79;21181;-84
2021/04/19 09:59:18;;;;;;;10.90;5.80;;;;;;;7.05;91.41;96680.94;1768205;80;21144;-85
2021/04/19 10:01:51;;;;;;;9.10;5.80;;;;;;;7.11;91.00;96676.48;1767713;80;21107;-85
2021/04/19 10:04:19;;;;;;;10.85;7.00;;;;;;;7.15;90.78;96674.39;1805944;79;21165;-84
2021/04/19 10:07:01;;;;;;;13.93;9.13;;;;;;;7.18;90.71;96667.84;1772289;79;21156;-84
2021/04/19 10:09:31;;;;;;;13.90;9.68;;;;;;;7.23;90.52;96672.34;1795139;79;21104;-84
2021/04/19 10:12:07;;;;;;;15.00;8.85;;;;;;;7.39;90.83;96676.65;1782110;79;21122;-84
2021/04/19 10:14:39;;;;;;;17.30;11.80;;;;;;;7.48;90.65;96671.70;1794131;79;21122;-84
2021/04/19 10:17:22;;;;;;;18.85;11.78;;;;;;;7.56;90.38;96673.30;1790658;79;21095;-84
2021/04/19 10:19:49;;;;;;;18.15;11.65;;;;;;;7.61;90.20;96664.64;1780574;80;21510;-84
2021/04/19 10:22:18;;;;;;;19.30;12.73;;;;;;;7.64;89.87;96668.86;1788509;79;21108;-84
2021/04/19 10:25:01;;;;;;;17.75;12.05;;;;;;;7.67;89.72;96663.59;1783159;79;21124;-84
2021/04/19 10:27:31;;;;;;;15.48;10.38;;;;;;;7.77;89.83;96662.84;1766694;79;21495;-84
2021/04/19 10:30:16;;;;;;;13.95;9.38;;;;;;;7.76;89.56;96661.27;1781883;79;21107;-85
2021/04/19 10:32:47;;;;;;;13.62;9.40;;;;;;;7.68;88.95;96665.18;1771924;80;21174;-84
2021/04/19 10:35:40;;;;;;;13.85;8.83;;;;;;;7.55;88.68;96667.76;1774754;80;21088;-84
2021/04/19 10:38:08;;;;;;;13.40;9.25;;;;;;;7.43;88.49;96669.28;1773474;79;21158;-84
2021/04/19 10:40:35;;;;;;;12.20;8.95;;;;;;;7.33;88.52;96665.82;1794463;79;21478;-85
2021/04/19 10:45:55;;;;;;;12.55;9.05;;;;;;;7.30;88.90;96664.98;1809912;78;23051;-84
2021/04/19 10:48:29;;;;;;;13.62;9.40;;;;;;;7.31;89.12;96666.05;1792415;79;21169;-84
2021/04/19 10:51:00;;;;;;;16.10;10.28;;;;;;;7.22;88.63;96667.59;1763412;80;21204;-83
2021/04/19 10:53:38;;;;;;;16.32;11.90;;;;;;;7.14;88.71;96670.70;1785368;79;21100;-84
2021/04/19 10:56:07;;;;;;;18.15;12.58;;;;;;;7.18;89.07;96665.70;1785458;79;21151;-84
2021/04/19 10:58:38;;;;;;;18.90;13.78;;;;;;;7.11;89.08;96668.05;1787718;79;21326;-84
2021/04/19 11:01:07;;;;;;;15.80;11.35;;;;;;;7.08;89.23;96669.88;1782056;79;21195;-84
2021/04/19 11:03:36;;;;;;;15.15;10.98;;;;;;;7.08;89.38;96666.45;1769992;80;21176;-84
2021/04/19 11:06:09;;;;;;;14.13;10.60;;;;;;;7.07;89.31;96668.30;1768273;80;21155;-84
2021/04/19 11:09:03;;;;;;;12.68;8.33;;;;;;;7.01;89.10;96666.66;1793039;79;21138;-83
2021/04/19 11:11:41;;;;;;;12.70;7.87;;;;;;;7.00;89.14;96671.66;1769269;80;21151;-84
2021/04/19 11:14:17;;;;;;;14.40;9.28;;;;;;;6.92;88.81;96666.09;1770631;80;21125;-84
2021/04/19 11:17:05;;;;;;;16.30;10.93;;;;;;;6.84;88.76;96668.66;1763329;80;21283;-84
2021/04/19 11:19:43;;;;;;;22.40;14.68;;;;;;;6.82;89.08;96673.38;1768957;80;21242;-84
2021/04/19 11:22:27;;;;;;;20.50;14.90;;;;;;;6.71;89.26;96673.03;1789982;79;21250;-83
2021/04/19 11:25:11;;;;;;;24.02;14.95;;;;;;;6.61;89.56;96666.35;1779443;79;21163;-84
2021/04/19 11:27:39;;;;;;;22.90;15.83;;;;;;;6.54;89.96;96663.42;1748744;80;21516;-84
2021/04/19 11:30:30;;;;;;;21.82;15.65;;;;;;;6.52;90.04;96666.03;1779012;80;21147;-84
2021/04/19 11:33:14;;;;;;;25.10;16.60;;;;;;;6.51;90.15;96670.51;1762151;80;22296;-83
2021/04/19 11:35:46;;;;;;;25.70;18.27;;;;;;;6.56;90.33;96671.06;1765360;80;21179;-83
2021/04/19 11:38:23;;;;;;;31.25;20.55;;;;;;;6.63;90.36;96666.92;1765302;79;21101;-84
2021/04/19 11:41:06;;;;;;;21.85;15.32;;;;;;;6.63;90.42;96663.77;1784694;79;21169;-83
2021/04/19 11:43:37;;;;;;;24.45;15.35;;;;;;;6.69;90.66;96661.95;1768437;80;21326;-84
2021/04/19 11:46:10;;;;;;;22.70;15.35;;;;;;;6.69;90.66;96661.95;1782607;80;21142;-84
2021/04/19 11:48:41;;;;;;;21.48;15.10;;;;;;;6.64;90.70;96657.45;1769202;79;21150;-84
2021/04/19 11:51:12;;;;;;;21.60;15.68;;;;;;;6.64;90.84;96652.70;1788691;79;21190;-84
2021/04/19 11:53:41;;;;;;;20.23;13.98;;;;;;;6.69;91.00;96654.84;1781799;80;21115;-84
2021/04/19 11:56:11;;;;;;;21.50;14.65;;;;;;;6.79;91.13;96658.09;1787852;79;21091;-84
2021/04/19 11:58:42;;;;;;;20.43;13.32;;;;;;;6.84;91.17;96648.37;1787154;79;21182;-84
2021/04/19 12:01:12;;;;;;;20.62;13.05;;;;;;;6.84;91.03;96660.75;1782254;79;21760;-84
2021/04/19 12:03:41;;;;;;;17.52;12.15;;;;;;;6.81;91.19;96650.72;1778703;79;21199;-84